Time;durP1;ratioP1;P1;durP2;ratioP2;P2;SDS_P1;SDS_P2;PMS_P1;PMS_P2;Temp;Humidity;BMP_temperature;BMP_pressure;BME280_temperature;BME280_humidity;BME280_pressure;Samples;Min_cycle;Max_cycle;Signal;HPM_P1;HPM_P2
2021/04/16 00:00:59;;;;;;;5.85;4.68;;;0.50;92.20;;;;;;5074314;28;20024;-62
2021/04/16 00:03:26;;;;;;;10.07;4.50;;;0.50;92.40;;;;;;5071887;28;20085;-62
2021/04/16 00:05:52;;;;;;;9.15;4.60;;;0.40;92.30;;;;;;5073065;28;20016;-63
2021/04/16 00:08:21;;;;;;;8.10;4.47;;;0.40;92.60;;;;;;5074520;28;20021;-62
2021/04/16 00:10:50;;;;;;;5.63;3.90;;;0.30;92.80;;;;;;5071807;28;20020;-61
2021/04/16 00:13:18;;;;;;;7.37;4.07;;;0.30;92.80;;;;;;5070607;28;20087;-62
2021/04/16 00:15:46;;;;;;;6.15;3.85;;;0.20;92.90;;;;;;5071281;28;20078;-61
2021/04/16 00:18:14;;;;;;;7.38;4.85;;;0.20;93.40;;;;;;5072347;28;20033;-62
2021/04/16 00:20:39;;;;;;;10.57;4.93;;;0.10;94.00;;;;;;5072520;28;20029;-62
2021/04/16 00:23:05;;;;;;;7.50;4.53;;;0.10;94.50;;;;;;5073609;28;20032;-59
2021/04/16 00:25:32;;;;;;;7.28;4.18;;;0.00;94.80;;;;;;5072784;28;20048;-62
2021/04/16 00:27:59;;;;;;;6.65;3.80;;;-0.10;95.30;;;;;;5074267;28;20085;-62
2021/04/16 00:30:31;;;;;;;5.95;3.97;;;-0.10;95.50;;;;;;5074083;28;20029;-61
2021/04/16 00:32:57;;;;;;;7.68;4.15;;;-0.10;95.70;;;;;;5073289;28;20031;-62
2021/04/16 00:35:23;;;;;;;10.88;4.70;;;-0.20;95.80;;;;;;5073092;28;20100;-62
2021/04/16 00:37:48;;;;;;;8.85;4.47;;;-0.20;96.30;;;;;;5070998;28;20701;-63
2021/04/16 00:40:24;;;;;;;6.70;4.20;;;-0.20;96.50;;;;;;5073558;28;20392;-62
2021/04/16 00:43:00;;;;;;;7.03;4.85;;;-0.30;96.80;;;;;;5071874;28;20048;-62
2021/04/16 00:45:29;;;;;;;6.43;4.15;;;-0.30;97.60;;;;;;5071317;28;20020;-61
2021/04/16 00:47:57;;;;;;;7.97;4.63;;;-0.30;97.50;;;;;;5071487;28;20028;-61
2021/04/16 00:50:29;;;;;;;7.80;4.22;;;-0.30;97.70;;;;;;5073645;28;20027;-61
2021/04/16 00:52:55;;;;;;;6.28;4.45;;;-0.40;97.90;;;;;;5069610;28;20025;-61
2021/04/16 00:55:22;;;;;;;7.82;4.20;;;-0.40;97.90;;;;;;5071610;28;20040;-62
2021/04/16 00:57:49;;;;;;;6.97;4.30;;;-0.40;98.50;;;;;;5072525;28;20102;-61
2021/04/16 01:00:16;;;;;;;9.88;4.53;;;-0.50;99.10;;;;;;5071912;28;20477;-62
2021/04/16 01:02:42;;;;;;;5.72;4.15;;;-0.40;98.80;;;;;;5070116;28;20025;-62
2021/04/16 01:05:11;;;;;;;8.13;4.20;;;-0.40;98.60;;;;;;5071730;28;20021;-62
2021/04/16 01:07:37;;;;;;;8.32;4.10;;;-0.50;98.70;;;;;;5070268;28;20025;-62
2021/04/16 01:10:06;;;;;;;9.05;4.75;;;-0.50;98.70;;;;;;5072611;28;20696;-63
2021/04/16 01:12:34;;;;;;;7.18;4.20;;;-0.60;99.10;;;;;;5071943;28;20078;-64
2021/04/16 01:15:14;;;;;;;9.30;4.78;;;-0.60;99.30;;;;;;5069742;28;20112;-62
2021/04/16 01:17:45;;;;;;;8.15;4.57;;;-0.70;99.70;;;;;;5069674;28;20048;-62
2021/04/16 01:20:16;;;;;;;6.95;4.47;;;-0.70;99.90;;;;;;5069834;28;20037;-62
2021/04/16 01:22:51;;;;;;;8.23;4.85;;;-0.80;99.90;;;;;;5070316;28;20028;-63
2021/04/16 01:25:20;;;;;;;9.20;4.93;;;-0.80;99.90;;;;;;5072233;28;20033;-62
2021/04/16 01:27:46;;;;;;;9.40;4.50;;;-0.80;99.90;;;;;;5072289;28;20027;-62
2021/04/16 01:30:19;;;;;;;5.78;4.30;;;-0.80;99.90;;;;;;5072507;28;20032;-61
2021/04/16 01:32:45;;;;;;;7.22;4.18;;;-0.80;99.90;;;;;;5070078;28;20107;-62
2021/04/16 01:35:15;;;;;;;8.70;5.00;;;-0.90;99.90;;;;;;5071965;28;20100;-63
2021/04/16 01:37:41;;;;;;;8.32;4.97;;;-0.90;99.90;;;;;;5069179;28;20036;-62
2021/04/16 01:40:08;;;;;;;5.53;4.13;;;-0.90;99.90;;;;;;5072656;28;20385;-62
2021/04/16 01:42:37;;;;;;;8.23;4.50;;;-0.90;99.90;;;;;;5071307;28;20107;-63
2021/04/16 01:45:05;;;;;;;8.57;4.55;;;-0.90;99.90;;;;;;5072178;28;20043;-62
2021/04/16 01:47:31;;;;;;;6.63;4.28;;;-0.90;99.90;;;;;;5071645;28;20525;-64
2021/04/16 01:49:59;;;;;;;11.13;4.40;;;-0.80;99.90;;;;;;5072173;28;20103;-61
2021/04/16 01:52:30;;;;;;;6.18;4.30;;;-0.80;99.90;;;;;;5068205;28;20056;-62
2021/04/16 01:54:57;;;;;;;6.50;4.57;;;-0.70;99.90;;;;;;5070107;28;20039;-61
2021/04/16 01:57:34;;;;;;;5.80;3.92;;;-0.70;99.90;;;;;;5069643;28;20052;-62
2021/04/16 02:00:01;;;;;;;8.23;4.45;;;-0.80;99.90;;;;;;5068923;28;20094;-62
2021/04/16 02:02:32;;;;;;;8.25;4.25;;;-0.80;99.90;;;;;;5072238;28;20477;-63
2021/04/16 02:04:58;;;;;;;7.57;4.15;;;-0.80;99.90;;;;;;5071788;28;20051;-62
2021/04/16 02:07:26;;;;;;;9.30;4.18;;;-0.90;99.90;;;;;;5070017;28;20472;-60
2021/04/16 02:09:53;;;;;;;7.45;4.15;;;-0.90;99.90;;;;;;5071323;28;20614;-62
2021/04/16 02:12:23;;;;;;;6.10;3.97;;;-1.00;99.90;;;;;;5070621;28;20077;-63
2021/04/16 02:14:49;;;;;;;;;;;-1.00;99.90;;;;;;5071080;28;20036;-62
2021/04/16 02:17:21;;;;;;;5.40;3.85;;;-1.00;99.90;;;;;;5070505;28;19916;-63
2021/04/16 02:19:47;;;;;;;7.40;5.03;;;-1.00;99.90;;;;;;5067887;28;20090;-63
2021/04/16 02:22:16;;;;;;;8.65;4.50;;;-1.10;99.90;;;;;;5071915;28;20103;-61
2021/04/16 02:24:42;;;;;;;7.15;4.30;;;-1.00;99.90;;;;;;5068948;28;20024;-62
2021/04/16 02:27:08;;;;;;;10.05;4.45;;;-1.00;99.90;;;;;;5071250;28;20469;-62
2021/04/16 02:29:36;;;;;;;6.00;4.18;;;-1.00;99.90;;;;;;5071059;28;20025;-64
2021/04/16 02:32:03;;;;;;;9.48;4.68;;;-0.90;99.90;;;;;;5069977;28;20089;-61
2021/04/16 02:34:29;;;;;;;7.93;4.40;;;-0.90;99.90;;;;;;5071249;28;20464;-62
2021/04/16 02:37:01;;;;;;;9.65;4.25;;;-1.00;99.90;;;;;;5067801;28;20024;-63
2021/04/16 02:39:28;;;;;;;9.85;4.53;;;-1.00;99.90;;;;;;5069883;28;20029;-61
2021/04/16 02:41:55;;;;;;;6.25;4.13;;;-1.00;99.90;;;;;;5070098;28;20020;-62
2021/04/16 02:44:21;;;;;;;7.43;3.90;;;-0.90;99.90;;;;;;5071215;28;20071;-62
2021/04/16 02:46:51;;;;;;;6.28;4.15;;;-1.00;99.90;;;;;;5069731;28;20030;-62
2021/04/16 02:49:17;;;;;;;8.30;4.03;;;-1.00;99.90;;;;;;5071280;28;20416;-62
2021/04/16 02:51:43;;;;;;;8.88;4.88;;;-1.00;99.90;;;;;;5069926;28;20036;-63
2021/04/16 02:54:09;;;;;;;10.32;5.25;;;-1.00;99.90;;;;;;5071163;28;20047;-62
2021/04/16 02:56:34;;;;;;;7.85;4.63;;;-1.10;99.90;;;;;;5068940;28;20059;-65
2021/04/16 02:59:00;;;;;;;6.07;4.05;;;-1.10;99.90;;;;;;5070830;28;20072;-62
2021/04/16 03:01:26;;;;;;;7.68;4.35;;;-1.10;99.90;;;;;;5070595;28;20023;-62
2021/04/16 03:03:52;;;;;;;6.38;4.50;;;-1.20;99.90;;;;;;5069149;28;20615;-61
2021/04/16 03:06:21;;;;;;;6.97;4.55;;;-1.20;99.90;;;;;;5070532;28;20035;-62
2021/04/16 03:08:55;;;;;;;9.18;4.60;;;-1.30;99.90;;;;;;5067884;28;20028;-62
2021/04/16 03:11:22;;;;;;;6.15;4.20;;;-1.30;99.90;;;;;;5070096;28;20063;-62
2021/04/16 03:13:48;;;;;;;6.68;4.47;;;-1.30;99.90;;;;;;5070491;28;20035;-62
2021/04/16 03:16:14;;;;;;;9.20;4.32;;;-1.30;99.90;;;;;;5070227;28;20463;-62
2021/04/16 03:18:40;;;;;;;9.75;5.10;;;-1.30;99.90;;;;;;5069302;28;20033;-62
2021/04/16 03:21:09;;;;;;;7.50;5.10;;;-1.30;99.90;;;;;;5067882;28;20040;-62
2021/04/16 03:23:35;;;;;;;8.60;4.73;;;-1.30;99.90;;;;;;5068752;28;20029;-64
2021/04/16 03:26:04;;;;;;;10.45;4.55;;;-1.30;99.90;;;;;;5070044;28;20316;-61
2021/04/16 03:28:30;;;;;;;8.30;4.93;;;-1.30;99.90;;;;;;5068979;28;20079;-63
2021/04/16 03:30:56;;;;;;;6.15;4.25;;;-1.30;99.90;;;;;;5069490;28;20028;-61
2021/04/16 03:33:21;;;;;;;7.38;4.47;;;-1.40;99.90;;;;;;5070958;28;20025;-62
2021/04/16 03:35:47;;;;;;;7.88;4.65;;;-1.40;99.90;;;;;;5069640;28;20024;-61
2021/04/16 03:38:13;;;;;;;9.32;4.95;;;-1.50;99.90;;;;;;5066838;28;20111;-61
2021/04/16 03:40:39;;;;;;;8.90;5.35;;;-1.50;99.90;;;;;;5069563;28;20021;-62
2021/04/16 03:43:05;;;;;;;9.48;5.38;;;-1.50;99.90;;;;;;5069993;28;20401;-62
2021/04/16 03:45:31;;;;;;;9.20;5.45;;;-1.40;99.90;;;;;;5070812;28;20018;-62
2021/04/16 03:47:59;;;;;;;7.38;5.00;;;-1.40;99.90;;;;;;5069035;28;20033;-62
2021/04/16 03:50:29;;;;;;;8.75;4.90;;;-1.40;99.90;;;;;;5070521;28;20035;-63
2021/04/16 03:52:55;;;;;;;;;;;-1.40;99.90;;;;;;5069894;28;20299;-62
2021/04/16 03:55:25;;;;;;;9.27;4.60;;;-1.40;99.90;;;;;;5066727;28;20402;-61
2021/04/16 03:57:50;;;;;;;8.13;4.72;;;-1.40;99.90;;;;;;5067218;28;20041;-62
2021/04/16 04:00:21;;;;;;;10.88;5.00;;;-1.40;99.90;;;;;;5069220;28;20116;-61
2021/04/16 04:02:47;;;;;;;8.55;5.25;;;-1.40;99.90;;;;;;5066436;28;20052;-63
2021/04/16 04:05:13;;;;;;;7.65;5.00;;;-1.40;99.90;;;;;;5066149;28;20404;-63
2021/04/16 04:07:39;;;;;;;9.73;5.07;;;-1.40;99.90;;;;;;5068392;28;20028;-63
2021/04/16 04:10:06;;;;;;;11.32;4.95;;;-1.40;99.90;;;;;;5069149;28;20086;-63
2021/04/16 04:12:31;;;;;;;6.75;4.55;;;-1.50;99.90;;;;;;5065402;28;20497;-63
2021/04/16 04:14:57;;;;;;;8.02;4.47;;;-1.50;99.90;;;;;;5066716;28;20036;-61
2021/04/16 04:17:31;;;;;;;8.35;4.65;;;-1.50;99.90;;;;;;5069380;28;20059;-62
2021/04/16 04:19:57;;;;;;;9.75;5.20;;;-1.50;99.90;;;;;;5068472;28;20033;-63
2021/04/16 04:22:23;;;;;;;9.48;5.32;;;-1.50;99.90;;;;;;5067959;28;20070;-64
2021/04/16 04:24:49;;;;;;;10.25;5.00;;;-1.50;99.90;;;;;;5067251;28;20059;-61
2021/04/16 04:27:19;;;;;;;6.05;4.32;;;-1.50;99.90;;;;;;5068009;28;20029;-63
2021/04/16 04:29:45;;;;;;;8.75;4.93;;;-1.50;99.90;;;;;;5067596;28;20105;-64
2021/04/16 04:32:12;;;;;;;8.77;4.85;;;-1.50;99.90;;;;;;5067431;28;20051;-61
2021/04/16 04:34:39;;;;;;;7.50;4.93;;;-1.40;99.90;;;;;;5068638;28;20465;-65
2021/04/16 04:37:07;;;;;;;10.02;4.72;;;-1.40;99.90;;;;;;5070873;28;20033;-64
2021/04/16 04:39:40;;;;;;;7.85;4.35;;;-1.50;99.90;;;;;;5051795;28;20079;-63
2021/04/16 04:42:07;;;;;;;7.15;4.60;;;-1.40;99.90;;;;;;5072748;28;20101;-64
2021/04/16 04:44:33;;;;;;;11.93;5.05;;;-1.40;99.90;;;;;;5070980;28;20052;-63
2021/04/16 04:46:59;;;;;;;8.75;5.18;;;-1.40;99.90;;;;;;5070468;28;20082;-62
2021/04/16 04:49:25;;;;;;;5.50;4.60;;;-1.30;99.90;;;;;;5072170;28;20385;-63
2021/04/16 04:52:16;;;;;;;7.78;4.72;;;-1.20;99.90;;;;;;5070471;28;20024;-59
2021/04/16 04:54:50;;;;;;;7.57;4.68;;;-1.20;99.90;;;;;;5071558;28;20020;-61
2021/04/16 04:57:18;;;;;;;6.50;4.32;;;-1.20;99.90;;;;;;5070301;28;20052;-63
2021/04/16 04:59:46;;;;;;;8.02;4.50;;;-1.20;99.90;;;;;;5070960;28;20059;-63
2021/04/16 05:02:13;;;;;;;11.40;5.00;;;-1.30;99.90;;;;;;5072766;28;20020;-62
2021/04/16 05:04:39;;;;;;;8.30;4.85;;;-1.20;99.90;;;;;;5072709;28;20099;-64
2021/04/16 05:07:05;;;;;;;10.02;5.13;;;-1.20;99.90;;;;;;5072035;28;20426;-64
2021/04/16 05:09:34;;;;;;;8.35;5.07;;;-1.10;99.90;;;;;;5064636;28;20099;-65
2021/04/16 05:11:59;;;;;;;7.85;4.80;;;-1.00;99.90;;;;;;5072792;28;20091;-61
2021/04/16 05:14:26;;;;;;;9.27;5.25;;;-1.00;99.90;;;;;;5074292;28;20020;-63
2021/04/16 05:16:54;;;;;;;10.02;5.18;;;-0.90;99.90;;;;;;5071946;28;20452;-66
2021/04/16 05:19:26;;;;;;;9.70;5.47;;;-0.80;99.90;;;;;;5071908;28;20024;-65
2021/04/16 05:21:55;;;;;;;8.60;4.70;;;-0.70;99.90;;;;;;5070900;28;20020;-62
2021/04/16 05:24:21;;;;;;;9.33;5.30;;;-0.60;99.90;;;;;;5072267;28;20533;-63
2021/04/16 05:26:47;;;;;;;10.60;5.57;;;-0.50;99.90;;;;;;5067235;28;20482;-64
2021/04/16 05:29:15;;;;;;;8.35;5.03;;;-0.40;99.90;;;;;;5057326;28;20040;-63
2021/04/16 05:31:41;;;;;;;10.40;5.70;;;-0.30;99.90;;;;;;5070915;28;20033;-63
2021/04/16 05:34:07;;;;;;;8.32;5.18;;;-0.20;99.90;;;;;;5073650;28;20480;-63
2021/04/16 05:36:33;;;;;;;8.52;4.85;;;-0.10;99.90;;;;;;5071640;28;20039;-62
2021/04/16 05:39:02;;;;;;;12.23;5.55;;;0.00;99.90;;;;;;5070955;28;20125;-62
2021/04/16 05:41:27;;;;;;;6.57;4.90;;;0.00;99.90;;;;;;5073118;28;20090;-62
2021/04/16 05:43:56;;;;;;;8.88;5.65;;;0.10;99.90;;;;;;5072746;28;20454;-64
2021/04/16 05:46:24;;;;;;;8.25;4.78;;;0.20;99.80;;;;;;5078506;28;20077;-64
2021/04/16 05:48:49;;;;;;;7.82;5.00;;;0.30;99.70;;;;;;5070298;28;20036;-64
2021/04/16 05:51:15;;;;;;;8.85;4.63;;;0.40;99.60;;;;;;5072079;28;20035;-64
2021/04/16 05:53:41;;;;;;;9.60;5.07;;;0.50;99.00;;;;;;5072073;28;20465;-63
2021/04/16 05:56:06;;;;;;;11.95;4.82;;;0.70;97.70;;;;;;5072259;28;20094;-63
2021/04/16 05:58:33;;;;;;;9.40;5.53;;;0.90;94.50;;;;;;5051734;28;20521;-63
2021/04/16 06:00:58;;;;;;;7.32;4.72;;;1.00;94.70;;;;;;5052274;28;20028;-60
2021/04/16 06:03:24;;;;;;;9.07;5.00;;;1.10;94.90;;;;;;5051666;28;20083;-61
2021/04/16 06:05:54;;;;;;;9.65;5.68;;;1.20;93.80;;;;;;5059307;28;20025;-62
2021/04/16 06:08:21;;;;;;;6.55;4.70;;;1.30;93.20;;;;;;5056219;28;20032;-61
2021/04/16 06:10:47;;;;;;;8.75;4.78;;;1.40;93.00;;;;;;5051604;28;20025;-62
2021/04/16 06:13:13;;;;;;;8.50;4.95;;;1.60;92.10;;;;;;5058702;28;20036;-62
2021/04/16 06:15:38;;;;;;;10.57;5.43;;;1.70;93.40;;;;;;5071803;28;20032;-64
2021/04/16 06:18:04;;;;;;;14.18;5.10;;;1.90;90.70;;;;;;5062070;28;20029;-62
2021/04/16 06:20:30;;;;;;;8.85;5.30;;;2.00;88.80;;;;;;5052756;28;20347;-62
2021/04/16 06:22:57;;;;;;;10.65;5.63;;;2.20;87.70;;;;;;5053708;28;20478;-61
2021/04/16 06:25:26;;;;;;;12.02;6.45;;;2.30;86.30;;;;;;5063511;28;20106;-62
2021/04/16 06:27:52;;;;;;;16.17;5.30;;;2.40;85.40;;;;;;5052935;28;20033;-62
2021/04/16 06:30:19;;;;;;;9.68;5.35;;;2.50;85.40;;;;;;5051165;28;20036;-62
2021/04/16 06:32:47;;;;;;;8.02;5.38;;;2.50;86.20;;;;;;5063735;28;20032;-62
2021/04/16 06:35:17;;;;;;;6.35;4.53;;;2.60;86.20;;;;;;5072376;28;20056;-62
2021/04/16 06:37:47;;;;;;;8.68;4.55;;;2.70;84.30;;;;;;5058501;28;20385;-60
2021/04/16 06:40:13;;;;;;;10.52;4.90;;;2.90;83.30;;;;;;5052155;28;20462;-62
2021/04/16 06:42:45;;;;;;;13.35;5.28;;;2.90;83.50;;;;;;5050197;28;20044;-64
2021/04/16 06:45:20;;;;;;;8.60;5.22;;;2.90;84.30;;;;;;5052120;28;20031;-61
2021/04/16 06:48:04;;;;;;;9.73;5.13;;;2.90;83.60;;;;;;5056079;28;20029;-62
2021/04/16 06:50:41;;;;;;;12.73;5.60;;;2.90;84.30;;;;;;5070092;28;20025;-60
2021/04/16 06:53:46;;;;;;;7.35;5.45;;;3.00;85.00;;;;;;5071726;28;20086;-61
2021/04/16 06:56:19;;;;;;;7.68;4.28;;;3.10;85.80;;;;;;5051140;28;20033;-61
2021/04/16 06:58:53;;;;;;;10.23;5.10;;;3.20;87.40;;;;;;5059948;28;20145;-63
2021/04/16 07:01:55;;;;;;;7.30;4.85;;;3.20;86.90;;;;;;5071855;28;20032;-62
2021/04/16 07:04:35;;;;;;;7.68;5.18;;;3.30;88.20;;;;;;5057603;28;20033;-63
2021/04/16 07:07:23;;;;;;;5.97;4.57;;;3.40;86.20;;;;;;5063306;28;20103;-62
2021/04/16 07:10:12;;;;;;;7.97;4.78;;;3.40;86.40;;;;;;5070738;28;20029;-62
2021/04/16 07:12:40;;;;;;;7.22;4.57;;;3.50;86.40;;;;;;5053040;28;20055;-64
2021/04/16 07:15:31;;;;;;;6.72;4.20;;;3.60;85.20;;;;;;5051334;28;20082;-63
2021/04/16 07:17:59;;;;;;;6.40;4.50;;;3.70;84.80;;;;;;5051137;28;20045;-63
2021/04/16 07:20:25;;;;;;;7.25;4.57;;;3.90;86.10;;;;;;5051288;28;20040;-64
2021/04/16 07:22:53;;;;;;;6.40;4.50;;;4.10;85.50;;;;;;5050856;28;20033;-63
2021/04/16 07:25:25;;;;;;;8.38;5.32;;;4.20;86.40;;;;;;5067004;28;20025;-63
2021/04/16 07:28:06;;;;;;;6.22;4.68;;;4.30;86.10;;;;;;5054786;28;20021;-63
2021/04/16 07:30:42;;;;;;;12.13;4.88;;;4.30;86.40;;;;;;5051534;28;20089;-63
2021/04/16 07:33:38;;;;;;;16.45;5.47;;;4.40;85.00;;;;;;5053952;28;20024;-63
2021/04/16 07:36:13;;;;;;;9.00;4.47;;;4.60;84.70;;;;;;5070722;28;20024;-62
2021/04/16 07:38:42;;;;;;;6.75;5.57;;;4.60;82.50;;;;;;5050983;28;20120;-64
2021/04/16 07:41:42;;;;;;;8.05;4.75;;;4.60;81.90;;;;;;5065049;28;20033;-62
2021/04/16 07:44:24;;;;;;;9.10;5.30;;;4.60;82.30;;;;;;5042847;28;20102;-62
2021/04/16 07:47:07;;;;;;;11.05;5.47;;;4.70;81.40;;;;;;5051288;28;20386;-63
2021/04/16 07:49:36;;;;;;;8.50;5.65;;;4.60;81.80;;;;;;5051275;28;20037;-62
2021/04/16 07:52:45;;;;;;;6.40;5.05;;;4.50;82.10;;;;;;5050509;28;20075;-62
2021/04/16 07:55:22;;;;;;;9.38;5.38;;;4.40;83.00;;;;;;5029170;28;20041;-63
2021/04/16 07:57:51;;;;;;;9.40;5.70;;;4.40;83.60;;;;;;5029764;28;20485;-62
2021/04/16 08:00:25;;;;;;;8.13;5.50;;;4.30;84.60;;;;;;5048330;28;20131;-62
2021/04/16 08:03:10;;;;;;;6.68;5.22;;;4.30;84.20;;;;;;5036029;28;20053;-63
2021/04/16 08:05:50;;;;;;;8.68;5.20;;;4.40;83.20;;;;;;5028837;28;20044;-64
2021/04/16 08:08:26;;;;;;;10.57;5.30;;;4.60;82.50;;;;;;5045827;28;20033;-63
2021/04/16 08:11:04;;;;;;;8.02;4.45;;;4.70;82.80;;;;;;5051426;28;20155;-63
2021/04/16 08:13:37;;;;;;;6.50;5.10;;;4.80;81.50;;;;;;5051458;28;20545;-63
2021/04/16 08:16:17;;;;;;;8.63;5.00;;;4.90;81.60;;;;;;5050243;28;20555;-62
2021/04/16 08:19:01;;;;;;;7.28;5.22;;;4.90;80.80;;;;;;5051650;28;20118;-65
2021/04/16 08:21:28;;;;;;;6.93;4.68;;;4.80;81.30;;;;;;5051550;28;20056;-63
2021/04/16 08:24:00;;;;;;;10.23;5.18;;;4.80;81.70;;;;;;5051070;28;20585;-63
2021/04/16 08:26:43;;;;;;;8.48;4.65;;;4.80;81.70;;;;;;5053761;28;20029;-62
2021/04/16 08:29:26;;;;;;;6.80;4.90;;;4.80;80.70;;;;;;5054309;28;20044;-63
2021/04/16 08:32:20;;;;;;;7.43;5.15;;;4.80;80.00;;;;;;5066470;28;20028;-63
2021/04/16 08:34:52;;;;;;;7.53;5.10;;;4.80;80.20;;;;;;5070022;28;20025;-64
2021/04/16 08:37:37;;;;;;;8.75;4.97;;;4.80;81.10;;;;;;5057054;28;20377;-63
2021/04/16 08:40:07;;;;;;;7.50;4.95;;;4.80;81.20;;;;;;5073337;28;20477;-63
2021/04/16 08:42:34;;;;;;;8.63;5.38;;;4.90;80.30;;;;;;5074149;28;20024;-63
2021/04/16 08:45:13;;;;;;;8.30;4.57;;;4.90;79.90;;;;;;5072882;28;20029;-63
2021/04/16 08:47:46;;;;;;;5.57;4.43;;;4.90;79.50;;;;;;5070770;28;20081;-62
2021/04/16 08:50:13;;;;;;;7.32;4.30;;;5.10;78.90;;;;;;5074122;28;20501;-63
2021/04/16 08:52:49;;;;;;;7.22;4.28;;;5.30;80.30;;;;;;5062108;28;20055;-62
2021/04/16 08:55:51;;;;;;;5.10;4.28;;;5.50;81.70;;;;;;5069444;28;20025;-62
2021/04/16 08:58:33;;;;;;;5.13;3.83;;;5.70;80.80;;;;;;5048029;28;20053;-61
2021/04/16 09:01:21;;;;;;;5.15;4.07;;;5.90;79.50;;;;;;5052886;28;20044;-63
2021/04/16 09:03:48;;;;;;;4.85;3.95;;;6.10;81.50;;;;;;5053662;28;20033;-63
2021/04/16 09:06:31;;;;;;;9.73;4.53;;;6.30;83.20;;;;;;5053545;28;20072;-63
2021/04/16 09:09:01;;;;;;;7.70;4.47;;;6.50;82.40;;;;;;5054023;28;20061;-63
2021/04/16 09:11:44;;;;;;;5.75;4.78;;;6.60;80.90;;;;;;5073463;28;20025;-63
2021/04/16 09:14:11;;;;;;;15.63;8.95;;;6.70;81.10;;;;;;5073261;28;20035;-64
2021/04/16 09:16:49;;;;;;;8.38;6.80;;;6.90;67.90;;;;;;5073500;28;20035;-62
2021/04/16 09:19:27;;;;;;;6.90;4.30;;;6.90;68.30;;;;;;5053954;28;20106;-63
2021/04/16 09:22:01;;;;;;;10.15;4.40;;;7.00;66.80;;;;;;5053325;28;20031;-63
2021/04/16 09:24:47;;;;;;;5.40;4.30;;;6.90;67.70;;;;;;5068453;28;20071;-63
2021/04/16 09:27:34;;;;;;;5.90;4.32;;;7.00;66.80;;;;;;5060741;28;20036;-62
2021/04/16 09:30:00;;;;;;;6.60;4.90;;;7.00;67.20;;;;;;5055780;28;20436;-63
2021/04/16 09:32:41;;;;;;;7.53;4.70;;;7.10;67.30;;;;;;5072917;28;20025;-63
2021/04/16 09:35:19;;;;;;;9.18;4.47;;;7.20;67.20;;;;;;5052612;28;20021;-63
2021/04/16 09:37:47;;;;;;;4.90;3.88;;;7.30;66.00;;;;;;5053116;28;20025;-64
2021/04/16 09:40:19;;;;;;;5.28;3.80;;;7.40;66.00;;;;;;5052717;28;20041;-63
2021/04/16 09:42:51;;;;;;;4.00;3.58;;;7.60;65.30;;;;;;5061518;28;20066;-65
2021/04/16 09:45:32;;;;;;;6.53;3.80;;;7.80;64.20;;;;;;5073221;28;20031;-63
2021/04/16 09:48:05;;;;;;;4.80;4.03;;;8.10;63.80;;;;;;5052669;28;20036;-63
2021/04/16 09:50:37;;;;;;;4.20;3.78;;;8.10;63.20;;;;;;5053056;28;20037;-63
2021/04/16 09:53:17;;;;;;;6.22;4.50;;;8.20;62.60;;;;;;5053464;28;20374;-63
2021/04/16 09:56:06;;;;;;;4.53;4.10;;;8.40;61.40;;;;;;5065163;28;20524;-63
2021/04/16 09:58:32;;;;;;;9.63;4.50;;;8.40;62.30;;;;;;5049377;28;20732;-63
2021/04/16 10:00:57;;;;;;;5.72;3.92;;;8.20;61.40;;;;;;5052113;28;20040;-63
2021/04/16 10:03:32;;;;;;;4.28;3.80;;;8.20;61.80;;;;;;5052179;28;20039;-62
2021/04/16 10:05:59;;;;;;;5.70;3.92;;;8.40;60.80;;;;;;5051875;28;20021;-63
2021/04/16 10:08:30;;;;;;;4.07;3.67;;;8.60;61.00;;;;;;5070469;28;20120;-66
2021/04/16 10:11:08;;;;;;;5.25;3.85;;;8.60;59.30;;;;;;5073086;28;20029;-63
2021/04/16 10:13:39;;;;;;;4.10;3.60;;;8.80;58.70;;;;;;5089235;28;20034;-67
2021/04/16 10:16:25;;;;;;;5.00;3.72;;;9.00;59.00;;;;;;5092920;28;20020;-67
2021/04/16 10:18:52;;;;;;;4.72;3.72;;;9.10;57.60;;;;;;5052231;28;20119;-68
2021/04/16 10:21:19;;;;;;;4.85;4.00;;;9.00;58.10;;;;;;5067420;28;20094;-67
2021/04/16 10:23:51;;;;;;;10.23;4.10;;;8.70;58.60;;;;;;5069222;28;20377;-69
2021/04/16 12:39:32;;;;;;;4.18;3.10;;;6.80;65.30;;;;;;5075297;28;20401;-64
2021/04/16 12:41:58;;;;;;;4.93;3.42;;;6.80;65.50;;;;;;5060661;28;20091;-65
2021/04/16 12:44:26;;;;;;;3.72;3.28;;;6.90;64.80;;;;;;5054596;28;20025;-70
2021/04/16 12:46:54;;;;;;;4.68;3.42;;;7.00;64.70;;;;;;5063357;28;20478;-67
2021/04/16 12:49:19;;;;;;;4.43;3.13;;;7.10;64.40;;;;;;5074759;28;20033;-64
2021/04/16 12:51:45;;;;;;;4.07;3.67;;;7.30;63.70;;;;;;5066931;28;20032;-64
2021/04/16 12:54:11;;;;;;;5.20;3.35;;;7.50;62.70;;;;;;5071440;28;20086;-64
2021/04/16 12:56:42;;;;;;;3.72;3.42;;;7.70;62.80;;;;;;5072954;28;20074;-65
2021/04/16 12:59:14;;;;;;;7.45;3.88;;;8.00;62.10;;;;;;5073619;28;20048;-64
2021/04/16 13:01:42;;;;;;;4.43;3.60;;;8.20;61.00;;;;;;5062948;28;20421;-64
2021/04/16 13:04:08;;;;;;;5.47;3.70;;;8.40;61.10;;;;;;5053169;28;20025;-64
2021/04/16 13:06:38;;;;;;;6.07;3.60;;;8.50;60.00;;;;;;5058104;28;20025;-64
2021/04/16 13:09:08;;;;;;;4.53;3.50;;;8.50;60.40;;;;;;5051854;28;20386;-64
2021/04/16 13:11:34;;;;;;;6.35;3.55;;;8.60;60.00;;;;;;5068542;28;20032;-64
2021/04/16 13:14:00;;;;;;;4.70;3.08;;;8.50;60.30;;;;;;5072816;28;20036;-64
2021/04/16 13:16:25;;;;;;;4.32;2.90;;;8.50;59.00;;;;;;5073563;28;20040;-64
2021/04/16 13:18:57;;;;;;;5.47;3.00;;;8.60;58.40;;;;;;5073680;28;20398;-66
2021/04/16 13:21:30;;;;;;;3.83;2.80;;;8.50;58.80;;;;;;5053698;28;20033;-62
2021/04/16 13:23:56;;;;;;;3.17;2.63;;;8.40;58.20;;;;;;5056473;28;20021;-64
2021/04/16 13:26:22;;;;;;;3.13;2.83;;;8.40;57.40;;;;;;5053545;28;20374;-64
2021/04/16 13:28:48;;;;;;;3.63;3.03;;;8.30;59.00;;;;;;5053399;28;20029;-64
2021/04/16 13:31:13;;;;;;;6.22;3.60;;;8.30;59.30;;;;;;5052705;28;20100;-67
2021/04/16 13:33:42;;;;;;;2.90;2.70;;;8.50;59.20;;;;;;5054655;28;20476;-64
2021/04/16 13:36:12;;;;;;;4.38;3.33;;;8.60;59.00;;;;;;5055781;28;20082;-64
2021/04/16 13:38:38;;;;;;;3.72;3.25;;;8.80;58.00;;;;;;5073522;28;20020;-65
2021/04/16 13:41:06;;;;;;;5.22;3.08;;;9.00;56.60;;;;;;5071086;28;20035;-68
2021/04/16 13:43:38;;;;;;;3.47;2.65;;;8.90;57.30;;;;;;5060435;28;20028;-65
2021/04/16 13:46:06;;;;;;;2.60;2.20;;;9.00;55.50;;;;;;5065056;28;20025;-64
2021/04/16 13:48:32;;;;;;;3.78;2.88;;;9.10;54.90;;;;;;5053758;28;20021;-66
2021/04/16 13:50:58;;;;;;;4.75;2.35;;;9.20;54.20;;;;;;5052368;28;20087;-66
2021/04/16 13:53:24;;;;;;;2.42;2.22;;;9.20;54.60;;;;;;5053040;28;20033;-67
2021/04/16 13:55:50;;;;;;;5.75;2.75;;;9.30;54.50;;;;;;5051510;28;20112;-65
2021/04/16 13:58:16;;;;;;;2.60;2.33;;;9.20;54.40;;;;;;5051650;28;20048;-64
2021/04/16 14:00:41;;;;;;;3.97;2.30;;;9.20;54.70;;;;;;5052594;28;20025;-67
2021/04/16 14:03:15;;;;;;;5.47;2.35;;;9.20;55.20;;;;;;5052358;28;20447;-66
2021/04/16 14:05:52;;;;;;;7.35;2.35;;;9.20;54.80;;;;;;5053326;28;20025;-67
2021/04/16 14:08:29;;;;;;;4.13;2.85;;;9.30;54.60;;;;;;5068056;28;20056;-65
2021/04/16 14:10:56;;;;;;;3.35;2.60;;;9.30;53.90;;;;;;5072269;28;20066;-68
2021/04/16 14:13:22;;;;;;;2.47;2.25;;;9.00;55.20;;;;;;5069614;28;20508;-65
2021/04/16 14:15:49;;;;;;;2.10;1.90;;;8.80;55.90;;;;;;5072836;28;20055;-65
2021/04/16 14:18:30;;;;;;;3.92;2.50;;;8.60;56.00;;;;;;5071840;28;20115;-65
2021/04/16 14:20:56;;;;;;;3.42;2.00;;;8.40;56.20;;;;;;5070063;28;20051;-68
2021/04/16 14:23:23;;;;;;;2.63;2.03;;;8.20;56.20;;;;;;5071454;28;20024;-63
2021/04/16 14:25:49;;;;;;;2.33;1.90;;;8.00;56.20;;;;;;5052351;28;20043;-64
2021/04/16 14:28:16;;;;;;;2.20;2.00;;;7.90;56.30;;;;;;5051383;28;20104;-64
2021/04/16 14:30:43;;;;;;;2.88;1.90;;;7.70;56.80;;;;;;5053318;28;20463;-65
2021/04/16 14:33:15;;;;;;;2.90;2.40;;;7.60;57.30;;;;;;5058216;28;20028;-64
2021/04/16 14:35:41;;;;;;;2.60;2.03;;;7.70;57.50;;;;;;5070837;28;20029;-66
2021/04/16 14:38:08;;;;;;;2.03;1.83;;;7.70;56.90;;;;;;5052341;28;20021;-65
2021/04/16 14:40:34;;;;;;;4.25;2.00;;;8.00;56.10;;;;;;5058021;28;20040;-65
2021/04/16 14:43:03;;;;;;;2.10;1.90;;;8.00;56.60;;;;;;5070768;28;20036;-65
2021/04/16 14:45:33;;;;;;;1.80;1.67;;;8.10;56.60;;;;;;5072115;28;20031;-65
2021/04/16 14:47:59;;;;;;;;;;;8.10;55.90;;;;;;5061523;28;20465;-65
2021/04/16 14:50:27;;;;;;;1.80;1.70;;;8.20;55.20;;;;;;5052215;28;19904;-65
2021/04/16 14:52:54;;;;;;;2.95;1.95;;;8.30;55.60;;;;;;5058671;28;20304;-65
2021/04/16 14:55:35;;;;;;;2.60;1.80;;;8.30;55.50;;;;;;5060610;28;20032;-65
2021/04/16 14:58:01;;;;;;;;;;;8.30;54.90;;;;;;5066632;28;20052;-68
2021/04/16 15:00:34;;;;;;;2.42;1.90;;;8.20;55.10;;;;;;5051855;28;20388;-68
2021/04/16 15:03:00;;;;;;;2.20;1.73;;;8.10;55.90;;;;;;5051325;28;20116;-67
2021/04/16 15:05:26;;;;;;;2.50;2.30;;;8.10;56.30;;;;;;5066639;28;20596;-67
2021/04/16 15:08:06;;;;;;;2.25;1.90;;;8.10;56.80;;;;;;5053652;28;20029;-64
2021/04/16 15:10:40;;;;;;;4.13;1.80;;;8.10;56.40;;;;;;5057490;28;20028;-67
2021/04/16 15:13:07;;;;;;;3.85;2.30;;;7.90;57.20;;;;;;5068401;28;20032;-69
2021/04/16 15:15:36;;;;;;;2.55;2.20;;;7.70;57.80;;;;;;5071992;28;20029;-66
2021/04/16 15:18:04;;;;;;;2.85;2.20;;;7.60;57.70;;;;;;5070229;28;20103;-66
2021/04/16 15:20:31;;;;;;;2.38;2.17;;;7.50;58.40;;;;;;5071421;28;20040;-62
2021/04/16 15:23:05;;;;;;;2.83;2.45;;;7.40;59.20;;;;;;5072080;28;20078;-68